Time;durP1;ratioP1;P1;durP2;ratioP2;P2;SDS_P1;SDS_P2;PMS_P1;PMS_P2;Temp;Humidity;BMP_temperature;BMP_pressure;BME280_temperature;BME280_humidity;BME280_pressure;Samples;Min_cycle;Max_cycle;Signal;HPM_P1;HPM_P2
2022/06/19 00:02:03;;;;;;;12.43;8.60;;;16.20;99.90;;;;;;5070096;28;20021;-53
2022/06/19 00:04:29;;;;;;;14.45;8.27;;;16.20;99.90;;;;;;5069792;28;20028;-54
2022/06/19 00:06:56;;;;;;;12.68;7.85;;;16.20;99.90;;;;;;5070631;28;20051;-53
2022/06/19 00:09:23;;;;;;;10.00;7.45;;;16.10;99.90;;;;;;5069980;28;20028;-53
2022/06/19 00:11:50;;;;;;;12.15;8.40;;;16.10;99.90;;;;;;5070336;28;20452;-55
2022/06/19 00:14:16;;;;;;;10.10;7.53;;;16.20;99.90;;;;;;5070559;28;20024;-54
2022/06/19 00:16:42;;;;;;;14.30;7.90;;;16.20;99.90;;;;;;5070791;28;20440;-54
2022/06/19 00:19:07;;;;;;;15.88;7.45;;;16.10;99.90;;;;;;5069723;28;20060;-54
2022/06/19 00:21:33;;;;;;;16.63;7.93;;;16.00;99.90;;;;;;5070198;28;20032;-55
2022/06/19 00:24:00;;;;;;;21.10;7.10;;;16.00;99.90;;;;;;5069647;28;20052;-55
2022/06/19 00:26:26;;;;;;;19.38;7.47;;;16.00;99.90;;;;;;5070535;28;20024;-50
2022/06/19 00:28:52;;;;;;;14.38;7.18;;;15.90;99.90;;;;;;5070456;28;20049;-51
2022/06/19 00:31:17;;;;;;;15.27;6.72;;;15.80;99.90;;;;;;5070159;28;20055;-51
2022/06/19 00:33:43;;;;;;;15.05;6.47;;;15.80;99.90;;;;;;5071459;28;20380;-53
2022/06/19 00:36:10;;;;;;;19.35;7.95;;;15.80;99.90;;;;;;5089287;28;20027;-54
2022/06/19 00:38:35;;;;;;;19.02;7.05;;;15.70;99.90;;;;;;5090328;28;20024;-56
2022/06/19 00:41:02;;;;;;;18.30;7.40;;;15.70;99.90;;;;;;5089248;28;20089;-54
2022/06/19 00:43:29;;;;;;;16.90;7.05;;;15.60;99.90;;;;;;5083806;28;20020;-54
2022/06/19 00:46:02;;;;;;;10.73;6.85;;;15.70;99.90;;;;;;5068726;28;20032;-55
2022/06/19 00:48:32;;;;;;;9.95;7.32;;;15.70;99.90;;;;;;5068767;28;20036;-54
2022/06/19 00:51:02;;;;;;;7.55;6.65;;;15.60;99.90;;;;;;5069515;28;20245;-51
2022/06/19 00:53:42;;;;;;;10.65;6.57;;;15.60;99.90;;;;;;5069347;28;20308;-54
2022/06/19 00:56:14;;;;;;;13.70;6.43;;;15.60;99.90;;;;;;5076033;28;20510;-51
2022/06/19 00:58:41;;;;;;;20.92;6.68;;;15.60;99.90;;;;;;5086927;28;20479;-52
2022/06/19 01:01:15;;;;;;;13.88;6.90;;;15.50;99.90;;;;;;5075645;28;20020;-53
2022/06/19 01:03:53;;;;;;;12.13;6.30;;;15.40;99.90;;;;;;5074555;28;20029;-55
2022/06/19 01:06:21;;;;;;;10.57;7.88;;;15.50;99.90;;;;;;5074625;28;20028;-54
2022/06/19 01:08:47;;;;;;;21.65;7.28;;;15.30;99.90;;;;;;5073734;28;20115;-53
2022/06/19 01:11:24;;;;;;;15.68;6.45;;;15.30;99.90;;;;;;5074283;28;20423;-52
2022/06/19 01:13:51;;;;;;;10.23;6.43;;;15.30;99.90;;;;;;5091148;28;20020;-54
2022/06/19 01:16:17;;;;;;;12.70;6.85;;;15.20;99.90;;;;;;5093412;28;20070;-54
2022/06/19 01:18:44;;;;;;;15.48;6.63;;;15.20;99.90;;;;;;5093822;28;20046;-53
2022/06/19 01:21:37;;;;;;;16.77;7.97;;;15.20;99.90;;;;;;5093522;28;20119;-54
2022/06/19 01:24:11;;;;;;;16.23;7.13;;;15.30;99.90;;;;;;5091636;28;20031;-54
2022/06/19 01:26:42;;;;;;;14.20;6.55;;;15.30;99.90;;;;;;5082559;28;20031;-52
2022/06/19 01:29:08;;;;;;;15.85;7.13;;;15.30;99.90;;;;;;5082999;28;20030;-52
2022/06/19 01:31:41;;;;;;;20.48;7.25;;;15.20;99.90;;;;;;5075767;28;20021;-53
2022/06/19 01:34:28;;;;;;;12.80;6.93;;;15.20;99.90;;;;;;5077837;28;20012;-52
2022/06/19 01:36:56;;;;;;;15.23;6.85;;;15.10;99.90;;;;;;5094137;28;20009;-52
2022/06/19 01:39:23;;;;;;;15.60;7.47;;;15.20;99.90;;;;;;5092840;28;20023;-54
2022/06/19 01:41:49;;;;;;;17.15;7.38;;;15.10;99.90;;;;;;5092111;28;20059;-53
2022/06/19 01:44:15;;;;;;;25.25;8.85;;;15.00;99.90;;;;;;5093927;28;20382;-52
2022/06/19 01:46:41;;;;;;;12.20;7.35;;;14.90;99.90;;;;;;5093035;28;20371;-52
2022/06/19 01:49:06;;;;;;;14.52;6.40;;;14.80;99.90;;;;;;5092390;28;20270;-53
2022/06/19 01:51:33;;;;;;;9.85;7.43;;;14.90;99.90;;;;;;5087568;28;20038;-54
2022/06/19 01:54:08;;;;;;;13.90;7.07;;;14.90;99.90;;;;;;5073137;28;20391;-54
2022/06/19 01:56:33;;;;;;;17.10;6.63;;;14.90;99.90;;;;;;5081646;28;20331;-51
2022/06/19 01:59:05;;;;;;;7.13;5.95;;;15.00;99.90;;;;;;5090564;28;20024;-55
2022/06/19 02:01:33;;;;;;;12.63;7.45;;;15.00;99.90;;;;;;5090860;28;20050;-55
2022/06/19 02:04:00;;;;;;;8.73;6.70;;;15.00;99.90;;;;;;5074575;28;20044;-54
2022/06/19 02:06:34;;;;;;;16.30;7.47;;;15.10;99.90;;;;;;5072002;28;20036;-54
2022/06/19 02:09:01;;;;;;;14.50;6.78;;;15.20;99.90;;;;;;5072695;28;20037;-50
2022/06/19 02:11:28;;;;;;;12.48;7.57;;;15.20;99.90;;;;;;5071740;28;20673;-55
2022/06/19 02:13:57;;;;;;;9.95;7.40;;;15.00;99.90;;;;;;5080167;28;20077;-51
2022/06/19 02:16:23;;;;;;;9.27;6.82;;;15.00;99.90;;;;;;5092315;28;20027;-53
2022/06/19 02:18:52;;;;;;;15.25;7.50;;;14.90;99.90;;;;;;5092072;28;20499;-53
2022/06/19 02:21:21;;;;;;;10.25;6.90;;;14.90;99.90;;;;;;5092771;28;20031;-51
2022/06/19 02:23:48;;;;;;;16.30;7.32;;;14.80;99.90;;;;;;5091493;28;20020;-51
2022/06/19 02:26:14;;;;;;;15.73;7.88;;;14.70;99.90;;;;;;5086372;28;20032;-53
2022/06/19 02:28:43;;;;;;;10.68;7.88;;;14.60;99.90;;;;;;5072048;28;20028;-52
2022/06/19 02:31:10;;;;;;;8.95;8.00;;;14.60;99.90;;;;;;5072701;28;20029;-52
2022/06/19 02:33:50;;;;;;;9.40;7.55;;;14.50;99.90;;;;;;5072631;28;20029;-55
2022/06/19 02:36:34;;;;;;;11.43;7.90;;;14.50;99.90;;;;;;5071494;28;20021;-53
2022/06/19 02:39:16;;;;;;;12.43;8.00;;;14.50;99.90;;;;;;5071572;28;20103;-54
2022/06/19 02:41:51;;;;;;;13.20;8.55;;;14.50;99.90;;;;;;5071254;28;20512;-52
2022/06/19 02:44:17;;;;;;;15.65;6.82;;;14.50;99.90;;;;;;5080319;28;20077;-54
2022/06/19 02:46:43;;;;;;;15.13;7.03;;;14.50;99.90;;;;;;5092603;28;20020;-54
2022/06/19 02:49:08;;;;;;;17.33;7.63;;;14.40;99.90;;;;;;5092222;28;20027;-53
2022/06/19 02:51:34;;;;;;;18.38;7.28;;;14.40;99.90;;;;;;5091641;28;20122;-54
2022/06/19 02:54:00;;;;;;;15.18;7.43;;;14.40;99.90;;;;;;5091203;28;20020;-54
2022/06/19 02:56:25;;;;;;;18.65;7.30;;;14.30;99.90;;;;;;5081572;28;20107;-53
2022/06/19 02:58:51;;;;;;;15.27;7.05;;;14.30;99.90;;;;;;5086210;28;20020;-54
2022/06/19 03:01:16;;;;;;;20.65;7.95;;;14.30;99.90;;;;;;5074052;28;20506;-53
2022/06/19 03:03:42;;;;;;;9.32;6.53;;;14.20;99.90;;;;;;5106804;28;20532;-53
2022/06/19 03:06:08;;;;;;;16.95;7.75;;;14.20;99.90;;;;;;5091444;28;20491;-54
2022/06/19 03:08:34;;;;;;;14.93;8.43;;;14.20;99.90;;;;;;5085953;28;20026;-50
2022/06/19 03:11:03;;;;;;;15.60;8.27;;;14.30;99.90;;;;;;5090174;28;20071;-55
2022/06/19 03:13:29;;;;;;;14.07;7.75;;;14.30;99.90;;;;;;5092003;28;20402;-54
2022/06/19 03:16:02;;;;;;;16.17;7.85;;;14.40;99.90;;;;;;5091785;28;20035;-53
2022/06/19 03:18:28;;;;;;;16.70;7.82;;;14.40;99.90;;;;;;5086746;28;20384;-51
2022/06/19 03:20:55;;;;;;;18.35;7.22;;;14.40;99.90;;;;;;5071875;28;20044;-54
2022/06/19 03:23:21;;;;;;;16.40;8.43;;;14.50;99.90;;;;;;5071694;28;20365;-53
2022/06/19 03:25:46;;;;;;;11.85;7.82;;;14.50;99.90;;;;;;5082828;28;20062;-55
2022/06/19 03:28:12;;;;;;;14.88;8.20;;;14.50;99.90;;;;;;5091550;28;20044;-53
2022/06/19 03:30:38;;;;;;;13.52;7.30;;;14.50;99.90;;;;;;5077171;28;20507;-54
2022/06/19 03:33:03;;;;;;;19.88;8.13;;;14.50;99.90;;;;;;5071711;28;20077;-56
2022/06/19 03:35:29;;;;;;;9.70;7.00;;;14.50;99.90;;;;;;5084621;28;20371;-56
2022/06/19 03:37:55;;;;;;;14.07;8.10;;;14.60;99.90;;;;;;5091907;28;20058;-57
2022/06/19 03:40:20;;;;;;;11.05;7.18;;;14.70;99.90;;;;;;5091292;28;20099;-56
2022/06/19 03:42:46;;;;;;;15.82;7.20;;;14.70;99.90;;;;;;5091406;28;20106;-55
2022/06/19 03:45:12;;;;;;;13.45;7.68;;;14.80;99.90;;;;;;5076559;28;20101;-55
2022/06/19 03:47:39;;;;;;;17.83;7.60;;;14.90;99.90;;;;;;5071081;28;20468;-53
2022/06/19 03:50:06;;;;;;;13.30;7.90;;;14.80;99.90;;;;;;5070925;28;20028;-55
2022/06/19 03:52:32;;;;;;;13.18;6.93;;;15.00;99.90;;;;;;5070856;28;20032;-56
2022/06/19 03:54:58;;;;;;;11.68;6.53;;;15.00;99.90;;;;;;5070827;28;20020;-56
2022/06/19 03:57:24;;;;;;;11.70;6.43;;;15.20;99.90;;;;;;5071390;28;20571;-55
2022/06/19 03:59:50;;;;;;;9.25;6.18;;;15.40;99.90;;;;;;5077414;28;20024;-56
2022/06/19 04:02:16;;;;;;;9.30;6.00;;;15.60;99.90;;;;;;5090921;28;20077;-54
2022/06/19 04:04:42;;;;;;;14.23;6.03;;;15.60;99.90;;;;;;5088801;28;20039;-55
2022/06/19 04:07:12;;;;;;;15.02;6.10;;;15.80;99.90;;;;;;5082094;28;20127;-53
2022/06/19 04:09:38;;;;;;;13.57;5.05;;;16.00;99.90;;;;;;5090402;28;20028;-57
2022/06/19 04:12:05;;;;;;;14.52;4.65;;;16.30;99.90;;;;;;5089562;28;20038;-55
2022/06/19 04:14:31;;;;;;;21.90;5.00;;;16.70;99.90;;;;;;5089838;28;20035;-55
2022/06/19 04:16:57;;;;;;;9.27;4.80;;;17.10;99.90;;;;;;5089913;28;20016;-55
2022/06/19 04:19:23;;;;;;;15.45;4.03;;;17.30;99.90;;;;;;5089684;28;20174;-56
2022/06/19 04:21:49;;;;;;;8.65;4.65;;;17.50;99.90;;;;;;5090135;28;20024;-57
2022/06/19 04:24:17;;;;;;;7.70;4.60;;;17.60;99.90;;;;;;5089398;28;20055;-53
2022/06/19 04:26:43;;;;;;;16.77;4.90;;;17.80;99.90;;;;;;5090524;28;20112;-53
2022/06/19 04:29:10;;;;;;;12.38;5.60;;;17.80;99.90;;;;;;5083610;28;20112;-55
2022/06/19 04:31:36;;;;;;;11.50;4.68;;;17.90;99.90;;;;;;5084972;28;20346;-55
2022/06/19 04:34:02;;;;;;;13.15;5.30;;;18.00;99.90;;;;;;5082207;28;20483;-57
2022/06/19 04:36:29;;;;;;;14.10;4.70;;;18.00;99.90;;;;;;5082580;28;20559;-54
2022/06/19 04:38:56;;;;;;;10.43;5.45;;;18.00;99.90;;;;;;5090137;28;20077;-56
2022/06/19 04:41:26;;;;;;;9.98;5.07;;;18.00;99.90;;;;;;5084016;28;20040;-56
2022/06/19 04:43:53;;;;;;;12.13;5.78;;;18.00;99.90;;;;;;5070502;28;20029;-55
2022/06/19 04:46:19;;;;;;;9.07;4.95;;;18.00;99.90;;;;;;5070358;28;20091;-53
2022/06/19 04:48:45;;;;;;;10.68;4.97;;;18.10;99.90;;;;;;5079619;28;20032;-55
2022/06/19 04:51:12;;;;;;;12.93;5.15;;;18.00;99.90;;;;;;5088813;28;20032;-55
2022/06/19 04:53:39;;;;;;;11.20;4.93;;;18.00;99.90;;;;;;5090132;28;20023;-54
2022/06/19 04:56:06;;;;;;;12.48;5.25;;;18.10;99.90;;;;;;5090130;28;20070;-56
2022/06/19 04:58:32;;;;;;;10.70;5.10;;;18.20;99.90;;;;;;5088547;28;20391;-56
2022/06/19 05:00:57;;;;;;;13.10;4.93;;;18.30;99.90;;;;;;5074086;28;20028;-54
2022/06/19 05:03:24;;;;;;;11.63;5.20;;;18.30;99.90;;;;;;5071279;28;20385;-57
2022/06/19 05:05:53;;;;;;;11.32;4.80;;;18.30;99.90;;;;;;5086807;28;20009;-56
2022/06/19 05:08:19;;;;;;;10.45;4.25;;;18.40;99.90;;;;;;5073978;28;20452;-56
2022/06/19 05:10:45;;;;;;;5.97;4.55;;;18.50;99.90;;;;;;5088296;28;20706;-57
2022/06/19 05:13:22;;;;;;;9.32;4.45;;;18.60;99.90;;;;;;5089906;28;20479;-54
2022/06/19 05:15:49;;;;;;;11.10;4.97;;;18.70;99.90;;;;;;5090416;28;20024;-54
2022/06/19 05:18:17;;;;;;;16.25;5.07;;;18.80;99.90;;;;;;5089808;28;20012;-55
2022/06/19 05:20:43;;;;;;;13.95;4.85;;;18.80;99.90;;;;;;5090436;28;20063;-52
2022/06/19 05:23:09;;;;;;;14.30;4.13;;;18.80;99.90;;;;;;5089840;28;20024;-56
2022/06/19 05:25:36;;;;;;;14.35;4.45;;;18.90;99.90;;;;;;5090186;28;20031;-56
2022/06/19 05:28:03;;;;;;;9.88;4.47;;;18.90;99.90;;;;;;5089534;28;20637;-56
2022/06/19 05:30:29;;;;;;;11.77;4.15;;;19.00;99.90;;;;;;5081931;28;20020;-54
2022/06/19 05:32:54;;;;;;;11.20;4.13;;;19.20;99.90;;;;;;5089781;28;20115;-56
2022/06/19 05:35:20;;;;;;;8.18;4.22;;;19.30;99.90;;;;;;5068910;28;20048;-55
2022/06/19 05:37:46;;;;;;;15.40;4.00;;;19.40;99.90;;;;;;5069989;28;20024;-55
2022/06/19 05:40:12;;;;;;;19.92;4.78;;;19.40;99.90;;;;;;5088087;28;20045;-56
2022/06/19 05:42:43;;;;;;;12.13;4.05;;;19.50;99.90;;;;;;5071171;28;20040;-55
2022/06/19 05:45:09;;;;;;;10.75;4.30;;;19.60;99.90;;;;;;5069850;28;20078;-56
2022/06/19 05:47:35;;;;;;;26.90;5.57;;;19.70;99.90;;;;;;5072496;28;20032;-57
2022/06/19 05:50:00;;;;;;;38.15;12.45;;;19.80;99.90;;;;;;5073569;28;20509;-55
2022/06/19 05:52:26;;;;;;;106.32;30.00;;;19.80;99.90;;;;;;5073235;28;20035;-54
2022/06/19 05:54:53;;;;;;;10.07;4.95;;;19.90;99.90;;;;;;5073784;28;20047;-56
2022/06/19 05:57:19;;;;;;;17.30;11.48;;;20.10;99.90;;;;;;5085675;28;20379;-56
2022/06/19 05:59:45;;;;;;;8.32;4.75;;;20.10;99.90;;;;;;5086004;28;20066;-55
2022/06/19 06:02:14;;;;;;;12.45;4.45;;;20.10;99.90;;;;;;5077512;28;20109;-55
2022/06/19 06:04:40;;;;;;;9.20;4.38;;;20.20;99.90;;;;;;5076397;28;20531;-54
2022/06/19 06:07:08;;;;;;;11.80;4.40;;;20.30;99.90;;;;;;5079639;28;20032;-57
2022/06/19 06:09:35;;;;;;;7.13;5.20;;;20.40;99.90;;;;;;5082011;28;20028;-56
2022/06/19 06:12:02;;;;;;;9.38;3.60;;;20.40;99.90;;;;;;5081129;28;20039;-56
2022/06/19 06:14:28;;;;;;;17.67;4.47;;;20.60;99.90;;;;;;5080389;28;20028;-54
2022/06/19 06:16:54;;;;;;;14.35;4.32;;;20.60;99.90;;;;;;5093275;28;20032;-55
2022/06/19 06:19:19;;;;;;;11.38;4.22;;;20.70;99.90;;;;;;5092757;28;20339;-55
2022/06/19 06:21:45;;;;;;;10.25;4.80;;;20.90;99.90;;;;;;5093053;28;20047;-53
2022/06/19 06:24:13;;;;;;;7.25;3.92;;;21.10;99.90;;;;;;5082841;28;20115;-55
2022/06/19 06:26:39;;;;;;;10.25;4.70;;;21.10;99.90;;;;;;5072923;28;20066;-52
2022/06/19 06:29:04;;;;;;;8.90;3.85;;;21.30;99.90;;;;;;5073018;28;20059;-57
2022/06/19 06:31:30;;;;;;;14.10;4.38;;;21.30;99.90;;;;;;5092555;28;20379;-56
2022/06/19 06:33:57;;;;;;;14.00;3.88;;;21.40;99.90;;;;;;5088617;28;20036;-55
2022/06/19 06:36:23;;;;;;;13.93;4.38;;;21.50;99.90;;;;;;5072676;28;20020;-55
2022/06/19 06:38:49;;;;;;;8.30;3.70;;;21.60;99.90;;;;;;5072707;28;20052;-55
2022/06/19 06:41:15;;;;;;;7.53;3.80;;;21.70;99.90;;;;;;5072267;28;20540;-56
2022/06/19 06:43:43;;;;;;;13.30;4.38;;;21.70;99.90;;;;;;5086062;28;20410;-57
2022/06/19 06:46:12;;;;;;;26.05;4.45;;;21.90;99.90;;;;;;5092401;28;20107;-57
2022/06/19 06:48:38;;;;;;;14.68;4.13;;;21.90;99.90;;;;;;5092051;28;20108;-55
2022/06/19 06:51:15;;;;;;;16.30;3.90;;;22.10;99.90;;;;;;5092626;28;20032;-56
2022/06/19 06:53:41;;;;;;;13.75;3.83;;;22.10;99.90;;;;;;5086590;28;20032;-54
2022/06/19 06:56:08;;;;;;;19.30;4.15;;;22.20;99.90;;;;;;5072239;28;20502;-54
2022/06/19 06:58:34;;;;;;;13.77;3.92;;;22.30;99.90;;;;;;5072776;28;20078;-56
2022/06/19 07:01:07;;;;;;;13.32;3.97;;;22.40;99.90;;;;;;5086539;28;20028;-56
2022/06/19 07:03:33;;;;;;;21.63;4.00;;;22.40;99.90;;;;;;5086723;28;20052;-56
2022/06/19 07:05:58;;;;;;;15.10;4.78;;;22.40;99.90;;;;;;5092381;28;20063;-54
2022/06/19 07:08:24;;;;;;;15.02;4.63;;;22.50;99.90;;;;;;5090216;28;20282;-55
2022/06/19 07:10:50;;;;;;;31.50;4.75;;;22.60;99.90;;;;;;5092158;28;20024;-55
2022/06/19 07:13:15;;;;;;;12.73;3.72;;;22.60;99.90;;;;;;5085115;28;20077;-56
2022/06/19 07:15:41;;;;;;;12.05;3.75;;;22.70;99.90;;;;;;5090303;28;20131;-56
2022/06/19 07:18:07;;;;;;;7.82;3.80;;;22.70;99.90;;;;;;5090216;28;20032;-56
2022/06/19 07:20:32;;;;;;;20.98;4.65;;;22.80;99.90;;;;;;5091848;28;20107;-57
2022/06/19 07:22:58;;;;;;;13.82;4.90;;;22.90;99.90;;;;;;5079959;28;20020;-57
2022/06/19 07:25:23;;;;;;;14.60;4.13;;;23.00;99.90;;;;;;5070479;28;20031;-56
2022/06/19 07:27:50;;;;;;;8.65;4.00;;;23.20;99.90;;;;;;5071704;28;20032;-57
2022/06/19 07:30:18;;;;;;;16.15;4.05;;;23.40;99.90;;;;;;5080231;28;20032;-57
2022/06/19 07:32:44;;;;;;;9.88;3.95;;;23.50;99.90;;;;;;5091337;28;20031;-53
2022/06/19 07:35:10;;;;;;;12.20;4.60;;;23.70;99.90;;;;;;5075587;28;20476;-54
2022/06/19 07:37:35;;;;;;;21.05;4.80;;;23.80;99.80;;;;;;5071468;28;20028;-54
2022/06/19 07:40:02;;;;;;;17.02;5.25;;;24.10;99.90;;;;;;5071245;28;20259;-50
2022/06/19 07:42:27;;;;;;;10.13;3.55;;;24.20;99.90;;;;;;5072498;28;20024;-53
2022/06/19 07:44:53;;;;;;;21.75;4.63;;;24.20;99.70;;;;;;5089857;28;20161;-53
2022/06/19 07:50:10;;;;;;;10.60;3.95;;;24.30;99.90;;;;;;5091175;28;20031;-54
2022/06/19 07:52:37;;;;;;;7.63;3.90;;;24.40;98.60;;;;;;5091463;28;20177;-55
2022/06/19 07:55:03;;;;;;;8.55;3.60;;;24.60;99.10;;;;;;5090878;28;20066;-51
2022/06/19 07:57:29;;;;;;;11.73;3.70;;;24.80;98.40;;;;;;5091397;28;20044;-53
2022/06/19 07:59:55;;;;;;;14.60;4.75;;;24.70;96.30;;;;;;5083599;28;20025;-54
2022/06/19 08:02:20;;;;;;;15.48;4.15;;;24.70;95.70;;;;;;5070768;28;20039;-55
2022/06/19 08:04:46;;;;;;;30.80;5.80;;;24.80;94.50;;;;;;5081084;28;20104;-53
2022/06/19 08:07:13;;;;;;;13.50;3.85;;;24.90;96.20;;;;;;5090760;28;20028;-56
2022/06/19 08:09:39;;;;;;;22.02;4.18;;;25.00;95.90;;;;;;5090984;28;20035;-54
2022/06/19 08:12:05;;;;;;;22.52;4.40;;;25.20;96.20;;;;;;5089368;28;20088;-53
2022/06/19 08:14:31;;;;;;;23.25;5.30;;;25.40;96.20;;;;;;5073235;28;20021;-54
2022/06/19 08:16:57;;;;;;;18.85;4.57;;;25.60;96.20;;;;;;5071420;28;20024;-55
2022/06/19 08:19:23;;;;;;;16.98;4.68;;;25.90;96.00;;;;;;5090625;28;20020;-54
2022/06/19 08:21:48;;;;;;;16.45;4.22;;;26.00;94.50;;;;;;5090861;28;20055;-50
2022/06/19 08:24:14;;;;;;;16.05;3.97;;;25.70;94.40;;;;;;5090374;28;20032;-54
2022/06/19 08:26:40;;;;;;;10.15;3.35;;;25.80;94.90;;;;;;5090950;28;20078;-54
2022/06/19 08:29:05;;;;;;;12.80;3.67;;;26.10;95.00;;;;;;5090300;28;20378;-53
2022/06/19 08:31:33;;;;;;;10.98;3.30;;;26.40;95.60;;;;;;5071280;28;20028;-54
2022/06/19 08:33:58;;;;;;;13.75;3.85;;;26.50;94.90;;;;;;5071865;28;20016;-53
2022/06/19 08:36:26;;;;;;;20.30;5.13;;;26.80;95.20;;;;;;5070254;28;20414;-55
2022/06/19 08:38:56;;;;;;;16.52;4.18;;;26.90;93.90;;;;;;5070360;28;20095;-54
2022/06/19 08:42:06;;;;;;;13.38;3.28;;;26.90;94.20;;;;;;5070352;28;20048;-53
2022/06/19 08:44:55;;;;;;;11.18;3.28;;;27.40;93.80;;;;;;5084002;28;20024;-53
2022/06/19 08:47:43;;;;;;;15.02;3.72;;;27.70;95.20;;;;;;5089982;28;20028;-54
2022/06/19 08:50:27;;;;;;;13.55;3.85;;;27.80;92.70;;;;;;5089847;28;20112;-55
2022/06/19 08:53:20;;;;;;;11.68;3.72;;;27.60;92.50;;;;;;5088954;28;20028;-54
2022/06/19 08:56:18;;;;;;;18.10;4.77;;;27.50;92.20;;;;;;5070558;28;20047;-55
2022/06/19 08:59:07;;;;;;;25.25;5.65;;;27.70;92.50;;;;;;5071489;28;20282;-55
2022/06/19 09:02:01;;;;;;;14.32;4.18;;;28.00;92.00;;;;;;5070243;28;20099;-53
2022/06/19 09:08:17;;;;;;;16.35;3.55;;;28.50;93.00;;;;;;5069830;28;20086;-52
2022/06/19 09:11:10;;;;;;;18.33;4.90;;;28.60;90.10;;;;;;5063459;28;20488;-51
2022/06/19 09:14:10;;;;;;;14.88;3.65;;;28.70;89.50;;;;;;5068353;28;20036;-55
2022/06/19 09:17:08;;;;;;;14.93;4.22;;;28.70;88.10;;;;;;5069604;28;20094;-51
2022/06/19 09:20:11;;;;;;;13.00;3.92;;;29.00;87.90;;;;;;5068875;28;20025;-54
2022/06/19 09:22:56;;;;;;;;;;;29.40;90.00;;;;;;5069040;28;20028;-50
2022/06/19 09:25:33;;;;;;;10.45;4.50;;;29.60;88.80;;;;;;5073939;28;19909;-54
2022/06/19 09:28:18;;;;;;;19.52;3.75;;;29.90;85.30;;;;;;5072088;28;20065;-54
2022/06/19 09:30:59;;;;;;;14.85;3.58;;;30.10;86.70;;;;;;5073673;28;20397;-56
2022/06/19 09:33:51;;;;;;;10.68;3.47;;;30.00;83.40;;;;;;5075364;28;20017;-54
2022/06/19 09:37:01;;;;;;;10.80;3.60;;;30.30;85.70;;;;;;5068781;28;20443;-53
2022/06/19 09:39:32;;;;;;;23.20;4.18;;;30.60;85.70;;;;;;5072172;28;20561;-55
2022/06/19 09:42:12;;;;;;;28.02;4.43;;;30.90;87.80;;;;;;5078538;28;20036;-54
2022/06/19 09:44:45;;;;;;;24.38;4.30;;;31.00;79.40;;;;;;5089308;28;20240;-55
2022/06/19 09:47:22;;;;;;;12.00;4.28;;;31.20;78.00;;;;;;5093009;28;20506;-55
2022/06/19 09:49:57;;;;;;;19.33;5.47;;;31.20;76.60;;;;;;5093612;28;20036;-54
2022/06/19 09:53:17;;;;;;;18.92;3.50;;;31.20;80.00;;;;;;5062082;28;20475;-53
2022/06/19 09:55:47;;;;;;;23.45;4.68;;;31.50;77.20;;;;;;5078165;28;21866;-54
2022/06/19 09:58:21;;;;;;;10.95;3.85;;;31.60;73.50;;;;;;5081863;28;20090;-55
2022/06/19 10:00:49;;;;;;;11.70;3.38;;;31.70;74.00;;;;;;5081743;28;20030;-55
2022/06/19 10:03:35;;;;;;;11.95;3.65;;;31.80;75.70;;;;;;5076741;28;22005;-53
2022/06/19 10:06:09;;;;;;;14.02;4.05;;;32.00;79.90;;;;;;5067378;28;20066;-55
2022/06/19 10:08:54;;;;;;;23.02;4.45;;;32.30;77.00;;;;;;5077053;28;20032;-53
2022/06/19 10:11:26;;;;;;;13.02;3.80;;;32.40;74.00;;;;;;5081393;28;20035;-55
2022/06/19 10:14:02;;;;;;;18.30;4.38;;;32.70;74.00;;;;;;5073081;28;20036;-55
2022/06/19 10:16:46;;;;;;;18.75;4.75;;;32.70;71.90;;;;;;5068337;28;20032;-53
2022/06/19 10:19:16;;;;;;;18.42;4.57;;;32.70;69.70;;;;;;5068860;28;20460;-55
2022/06/19 10:24:53;;;;;;;19.43;4.37;;;32.70;71.20;;;;;;5066923;28;20450;-54
2022/06/19 10:27:52;;;;;;;18.73;4.95;;;32.70;69.80;;;;;;5080657;28;20357;-55
2022/06/19 10:30:31;;;;;;;32.58;5.20;;;32.60;70.60;;;;;;5076383;28;20035;-56
2022/06/19 10:33:06;;;;;;;25.88;4.55;;;33.00;67.60;;;;;;5079218;28;20032;-53
2022/06/19 10:35:53;;;;;;;16.52;4.20;;;33.10;64.00;;;;;;5064626;28;20074;-55
2022/06/19 10:38:38;;;;;;;19.40;4.30;;;33.10;66.40;;;;;;5076078;28;20028;-55
2022/06/19 10:44:34;;;;;;;43.80;4.72;;;33.10;61.00;;;;;;5076983;28;20041;-55
2022/06/19 10:50:08;;;;;;;39.42;4.72;;;33.50;61.20;;;;;;5080355;28;20190;-54
2022/06/19 10:52:43;;;;;;;24.20;4.57;;;33.40;56.90;;;;;;5081260;28;20024;-55
2022/06/19 10:55:21;;;;;;;23.23;4.85;;;33.40;59.50;;;;;;5063617;28;20032;-54
2022/06/19 10:58:13;;;;;;;26.70;5.40;;;33.50;54.60;;;;;;5079998;28;20047;-52
2022/06/19 11:00:39;;;;;;;33.50;5.33;;;33.60;54.20;;;;;;5079342;28;20028;-54
2022/06/19 11:06:14;;;;;;;27.73;6.03;;;33.40;59.90;;;;;;5070032;28;20107;-56
2022/06/19 11:08:45;;;;;;;34.35;5.63;;;33.70;57.00;;;;;;5071716;28;20487;-55
2022/06/19 11:11:16;;;;;;;29.23;5.38;;;33.80;52.00;;;;;;5069589;28;20032;-55
2022/06/19 11:14:07;;;;;;;30.58;5.40;;;33.60;51.70;;;;;;5080440;28;20114;-55
2022/06/19 11:16:50;;;;;;;27.83;5.25;;;34.00;52.20;;;;;;5075190;28;20032;-56
2022/06/19 11:19:34;;;;;;;36.00;5.78;;;33.80;50.70;;;;;;5074455;28;20147;-55
2022/06/19 11:22:01;;;;;;;36.83;5.13;;;34.20;50.60;;;;;;5078272;28;20058;-56
2022/06/19 11:24:31;;;;;;;42.00;6.82;;;34.20;48.50;;;;;;5071766;28;21119;-56
2022/06/19 11:26:58;;;;;;;32.00;6.05;;;34.20;51.60;;;;;;5080142;28;20020;-57
2022/06/19 11:29:26;;;;;;;34.28;6.65;;;34.70;49.50;;;;;;5066794;28;20029;-53
2022/06/19 11:32:15;;;;;;;30.92;6.28;;;34.70;49.00;;;;;;5063097;28;20060;-56
2022/06/19 11:34:44;;;;;;;32.15;6.30;;;34.90;53.70;;;;;;5062542;28;20377;-56
2022/06/19 11:37:28;;;;;;;35.83;5.63;;;35.10;46.50;;;;;;5077948;28;20483;-56
2022/06/19 11:40:00;;;;;;;26.27;5.18;;;34.80;47.90;;;;;;5074711;28;20130;-55
2022/06/19 11:42:34;;;;;;;33.88;5.75;;;34.90;47.70;;;;;;5069049;28;20786;-55
2022/06/19 11:45:31;;;;;;;36.78;6.20;;;35.20;47.10;;;;;;5079062;28;20031;-55
2022/06/19 11:47:56;;;;;;;20.65;5.05;;;34.50;47.20;;;;;;5079769;28;20055;-54
2022/06/19 11:50:29;;;;;;;35.65;6.45;;;34.70;48.00;;;;;;5080102;28;20025;-55
2022/06/19 11:52:56;;;;;;;;;;;34.90;48.10;;;;;;5079650;28;20036;-56
2022/06/19 11:55:41;;;;;;;28.88;4.95;;;35.20;49.50;;;;;;5079287;28;19961;-58
2022/06/19 11:58:30;;;;;;;22.13;6.40;;;35.10;50.20;;;;;;5074771;28;20103;-54
2022/06/19 12:01:09;;;;;;;27.25;6.38;;;35.40;48.80;;;;;;5078742;28;20109;-56
2022/06/19 12:03:55;;;;;;;33.95;6.50;;;35.30;47.00;;;;;;5078981;28;20101;-56
2022/06/19 12:06:46;;;;;;;42.70;7.75;;;35.50;47.30;;;;;;5079542;28;20020;-56
2022/06/19 12:09:42;;;;;;;35.85;6.68;;;35.80;46.90;;;;;;5077071;28;20108;-54
2022/06/19 12:12:17;;;;;;;26.33;6.78;;;36.00;49.70;;;;;;5071673;28;20400;-57
2022/06/19 12:15:00;;;;;;;31.55;5.65;;;36.40;46.10;;;;;;5079628;28;20081;-56
2022/06/19 12:17:32;;;;;;;;;;;37.10;46.00;;;;;;5080083;28;20027;-56
2022/06/19 12:20:05;;;;;;;36.55;6.68;;;37.60;48.80;;;;;;5079429;28;20034;-55
2022/06/19 12:22:55;;;;;;;28.25;5.30;;;38.10;45.50;;;;;;5075103;28;20473;-56
2022/06/19 12:25:33;;;;;;;39.42;5.90;;;38.30;42.30;;;;;;5078650;28;20036;-56
2022/06/19 12:28:26;;;;;;;33.78;5.97;;;38.40;44.10;;;;;;5080130;28;20032;-56
2022/06/19 12:30:54;;;;;;;31.52;7.68;;;39.30;39.10;;;;;;5078392;28;20028;-56
2022/06/19 12:33:31;;;;;;;50.42;6.78;;;40.00;39.50;;;;;;5079178;28;20106;-55
2022/06/19 12:35:56;;;;;;;38.92;5.90;;;39.60;37.90;;;;;;5085033;28;20081;-57
2022/06/19 12:38:24;;;;;;;28.73;5.82;;;40.10;40.50;;;;;;5097320;28;20031;-57
2022/06/19 12:40:50;;;;;;;47.35;5.82;;;41.10;39.40;;;;;;5099835;28;20043;-57
2022/06/19 12:43:24;;;;;;;29.08;7.15;;;40.00;37.60;;;;;;5092096;28;20475;-57
2022/06/19 12:45:58;;;;;;;33.58;5.00;;;40.40;37.20;;;;;;5099302;28;20367;-57
2022/06/19 12:48:33;;;;;;;35.17;4.78;;;40.10;41.10;;;;;;5089747;28;20030;-58
2022/06/19 12:51:28;;;;;;;38.20;4.95;;;41.60;39.50;;;;;;5078963;28;20027;-58
2022/06/19 12:54:24;;;;;;;34.95;5.95;;;41.70;38.60;;;;;;5074960;28;20409;-58
2022/06/19 12:57:07;;;;;;;49.85;6.18;;;41.40;36.30;;;;;;5078152;28;20051;-58
2022/06/19 12:59:58;;;;;;;39.38;5.68;;;41.90;34.20;;;;;;5080384;28;20485;-58
2022/06/19 13:02:35;;;;;;;28.83;5.38;;;40.90;34.70;;;;;;5082891;28;20027;-58
2022/06/19 13:05:13;;;;;;;33.17;6.05;;;41.90;35.20;;;;;;5078048;28;20047;-58
2022/06/19 13:07:54;;;;;;;35.67;5.53;;;42.10;36.20;;;;;;5079061;28;20111;-58
2022/06/19 13:10:52;;;;;;;41.80;6.93;;;41.80;35.00;;;;;;5081037;28;20028;-58
2022/06/19 13:13:52;;;;;;;34.83;5.40;;;41.80;33.90;;;;;;5072428;28;20055;-57
2022/06/19 13:17:00;;;;;;;36.40;5.20;;;43.40;35.80;;;;;;5085585;28;20490;-58
2022/06/19 13:20:13;;;;;;;34.97;5.47;;;43.60;38.50;;;;;;5098269;28;20078;-58
2022/06/19 13:22:52;;;;;;;31.60;5.30;;;41.80;35.30;;;;;;5076662;28;20028;-58